Caletta — ICNZ — position and weather

sailwx.info

Track history (hours):
 
Tides and Currents Weather Stations Pressure Air Temp Water Temp Dewpoint Dewpoint Depression Visibility Wind Speed Wind Dir Waves Ship Positions

Caletta

Last reported at 2017-Sep-21 11:57 UTC. Time now 2017-Sep-23 13:05 UTC.
Position N 49°50' W 005°40'.

Length 183 m; draft 7.5 m.

Type: Ship (hazmat cat A). MMSI: 247296300.

Date/timePositionNaut miles runAvg speedWind from/ knotsBaromVisibWave heightAir tempDewpointWater temp
2017-Sep-21 11:57N 49°50' W 005°40'0 0.8
2017-Sep-21 11:23N 49°50' W 005°39'0 0.2
2017-Sep-21 09:47N 49°50' W 005°39'0 0.6
2017-Sep-21 09:30N 49°50' W 005°40'20 0.8
2017-Sep-20 08:52N 49°39' W 005°13'1 1.2
2017-Sep-20 08:15N 49°39' W 005°14'1 1.6
2017-Sep-20 07:54N 49°39' W 005°15'3 2.2
2017-Sep-20 06:21N 49°38' W 005°20'1 2.7
2017-Sep-20 06:00N 49°38' W 005°22'1 2.8
2017-Sep-20 05:30N 49°38' W 005°24'1 2.9
2017-Sep-20 05:00N 49°37' W 005°26'1 2.8
2017-Sep-20 04:30N 49°37' W 005°28'1 2.7
2017-Sep-20 04:00N 49°36' W 005°30'1 2.6
2017-Sep-20 03:30N 49°36' W 005°32'1 2.4
2017-Sep-20 03:00N 49°35' W 005°33'1 2.3
2017-Sep-20 02:30N 49°34' W 005°35'1 2.0
2017-Sep-20 01:59N 49°34' W 005°36'1 1.8
2017-Sep-20 01:30N 49°33' W 005°37'1 1.5
2017-Sep-20 01:00N 49°33' W 005°38'1 1.0
2017-Sep-20 00:30N 49°32' W 005°38'0 0.7
2017-Sep-20 00:00N 49°32' W 005°39'0 0.4
2017-Sep-19 23:29N 49°32' W 005°39'0 0.3
2017-Sep-19 23:00N 49°32' W 005°38'0 0.2
2017-Sep-19 22:26N 49°32' W 005°38'0 0.4
2017-Sep-19 21:31N 49°32' W 005°38'0 0.5
2017-Sep-19 21:30N 49°32' W 005°38'14 5.8
2017-Sep-19 19:00N 49°37' W 005°17'2 1.4
2017-Sep-19 17:34N 49°36' W 005°20'0 1.8
2017-Sep-19 17:27N 49°36' W 005°20'  
2017-Sep-13 17:12N 49°29' W 003°59'511.1
2017-Sep-13 16:47N 49°29' W 003°52'1810.7
2017-Sep-13 15:04N 49°34' W 003°24'111.2
2017-Sep-13 15:00N 49°34' W 003°23'4 7.1
2017-Sep-13 14:29N 49°34' W 003°29'2213.2
2017-Sep-13 12:48N 49°21' W 003°58'4713.7
2017-Sep-13 09:23N 48°58' W 004°59'514.3
2017-Sep-13 09:00N 48°56' W 005°07'713.6
2017-Sep-13 08:29N 48°53' W 005°17'713.9
2017-Sep-13 08:00N 48°49' W 005°25'  
Track history (hours):
 
Tides and Currents Weather Stations Pressure Air Temp Water Temp Dewpoint Dewpoint Depression Visibility Wind Speed Wind Dir Waves Ship Positions

Caletta

Last reported at 2017-Sep-21 11:57 UTC. Time now 2017-Sep-23 13:05 UTC.
Position N 49°50' W 005°40'.

Length 183 m; draft 7.5 m.

Type: Ship (hazmat cat A). MMSI: 247296300.

Date/timePositionNaut miles runAvg speedWind from/ knotsBaromVisibWave heightAir tempDewpointWater temp
2017-Sep-21 11:57N 49°50' W 005°40'0 0.8
2017-Sep-21 11:23N 49°50' W 005°39'0 0.2
2017-Sep-21 09:47N 49°50' W 005°39'0 0.6
2017-Sep-21 09:30N 49°50' W 005°40'20 0.8
2017-Sep-20 08:52N 49°39' W 005°13'1 1.2
2017-Sep-20 08:15N 49°39' W 005°14'1 1.6
2017-Sep-20 07:54N 49°39' W 005°15'3 2.2
2017-Sep-20 06:21N 49°38' W 005°20'1 2.7
2017-Sep-20 06:00N 49°38' W 005°22'1 2.8
2017-Sep-20 05:30N 49°38' W 005°24'1 2.9
2017-Sep-20 05:00N 49°37' W 005°26'1 2.8
2017-Sep-20 04:30N 49°37' W 005°28'1 2.7
2017-Sep-20 04:00N 49°36' W 005°30'1 2.6
2017-Sep-20 03:30N 49°36' W 005°32'1 2.4
2017-Sep-20 03:00N 49°35' W 005°33'1 2.3
2017-Sep-20 02:30N 49°34' W 005°35'1 2.0
2017-Sep-20 01:59N 49°34' W 005°36'1 1.8
2017-Sep-20 01:30N 49°33' W 005°37'1 1.5
2017-Sep-20 01:00N 49°33' W 005°38'1 1.0
2017-Sep-20 00:30N 49°32' W 005°38'0 0.7
2017-Sep-20 00:00N 49°32' W 005°39'0 0.4
2017-Sep-19 23:29N 49°32' W 005°39'0 0.3
2017-Sep-19 23:00N 49°32' W 005°38'0 0.2
2017-Sep-19 22:26N 49°32' W 005°38'0 0.4
2017-Sep-19 21:31N 49°32' W 005°38'0 0.5
2017-Sep-19 21:30N 49°32' W 005°38'14 5.8
2017-Sep-19 19:00N 49°37' W 005°17'2 1.4
2017-Sep-19 17:34N 49°36' W 005°20'0 1.8
2017-Sep-19 17:27N 49°36' W 005°20'  
2017-Sep-13 17:12N 49°29' W 003°59'511.1
2017-Sep-13 16:47N 49°29' W 003°52'1810.7
2017-Sep-13 15:04N 49°34' W 003°24'111.2
2017-Sep-13 15:00N 49°34' W 003°23'4 7.1
2017-Sep-13 14:29N 49°34' W 003°29'2213.2
2017-Sep-13 12:48N 49°21' W 003°58'4713.7
2017-Sep-13 09:23N 48°58' W 004°59'514.3
2017-Sep-13 09:00N 48°56' W 005°07'713.6
2017-Sep-13 08:29N 48°53' W 005°17'713.9
2017-Sep-13 08:00N 48°49' W 005°25'  

Dump ship's entire track history